Time;durP1;ratioP1;P1;durP2;ratioP2;P2;SDS_P1;SDS_P2;PMS_P1;PMS_P2;Temp;Humidity;BMP_temperature;BMP_pressure;BME280_temperature;BME280_humidity;BME280_pressure;Samples;Min_cycle;Max_cycle;Signal;HPM_P1;HPM_P2
2023/10/29 00:01:08;;;;;;;2.03;1.40;;;17.00;80.80;;;;;;5031388;28;20485;-68
2023/10/29 00:03:35;;;;;;;2.27;1.33;;;17.00;80.80;;;;;;5031306;28;20445;-68
2023/10/29 00:06:02;;;;;;;3.23;1.50;;;17.00;80.60;;;;;;5039573;28;20948;-68
2023/10/29 00:08:29;;;;;;;2.80;1.63;;;17.10;80.40;;;;;;5051535;28;20949;-68
2023/10/29 00:10:56;;;;;;;2.33;1.73;;;17.10;80.20;;;;;;5047540;28;20475;-68
2023/10/29 00:13:25;;;;;;;2.03;1.70;;;17.10;80.00;;;;;;5032626;28;20873;-67
2023/10/29 00:15:52;;;;;;;1.70;1.60;;;17.00;79.90;;;;;;5031291;28;20500;-69
2023/10/29 00:18:18;;;;;;;1.70;1.60;;;17.00;79.90;;;;;;5031554;28;20441;-68
2023/10/29 00:20:45;;;;;;;2.43;1.53;;;17.00;79.90;;;;;;5033128;28;20587;-67
2023/10/29 00:23:13;;;;;;;3.30;1.70;;;17.00;79.90;;;;;;5055411;28;20464;-67
2023/10/29 00:25:40;;;;;;;1.30;1.20;;;17.00;79.80;;;;;;5057998;28;20448;-67
2023/10/29 00:28:07;;;;;;;1.60;1.50;;;17.00;79.70;;;;;;5057993;28;20443;-68
2023/10/29 00:30:36;;;;;;;1.80;1.47;;;16.90;79.30;;;;;;5057642;28;20448;-67
2023/10/29 00:33:03;;;;;;;2.83;1.40;;;17.00;79.30;;;;;;5052264;28;20449;-68
2023/10/29 00:35:30;;;;;;;4.23;1.30;;;17.00;79.10;;;;;;5038051;28;20445;-69
2023/10/29 00:37:57;;;;;;;1.40;1.30;;;17.00;79.10;;;;;;5038037;28;20523;-69
2023/10/29 00:40:23;;;;;;;2.37;1.50;;;17.00;79.20;;;;;;5047368;28;20490;-69
2023/10/29 00:42:50;;;;;;;1.60;1.40;;;17.10;79.30;;;;;;5038270;28;20795;-68
2023/10/29 00:45:18;;;;;;;3.03;1.60;;;17.10;78.90;;;;;;5038139;28;20806;-67
2023/10/29 00:47:46;;;;;;;1.63;1.50;;;17.10;78.80;;;;;;5037638;28;20445;-69
2023/10/29 00:50:14;;;;;;;3.00;1.60;;;17.10;79.10;;;;;;5037861;28;20842;-68
2023/10/29 00:52:41;;;;;;;1.30;1.20;;;17.20;79.40;;;;;;5037738;28;20950;-68
2023/10/29 00:55:08;;;;;;;2.50;1.73;;;17.20;79.20;;;;;;5038104;28;20479;-68
2023/10/29 00:57:36;;;;;;;3.50;1.77;;;17.20;78.90;;;;;;5037721;28;20544;-68
2023/10/29 01:00:06;;;;;;;1.70;1.33;;;17.20;79.20;;;;;;5037159;28;20477;-68
2023/10/29 01:02:34;;;;;;;2.80;1.50;;;17.20;78.70;;;;;;5037315;28;20953;-69
2023/10/29 01:05:05;;;;;;;1.73;1.40;;;17.20;78.60;;;;;;5037794;28;20459;-68
2023/10/29 01:07:33;;;;;;;2.10;1.50;;;17.20;79.40;;;;;;5045784;28;20484;-69
2023/10/29 01:10:00;;;;;;;2.13;1.40;;;17.20;79.60;;;;;;5057478;28;20807;-68
2023/10/29 01:12:27;;;;;;;2.50;1.50;;;17.20;79.40;;;;;;5036852;28;20464;-68
2023/10/29 01:14:54;;;;;;;1.87;1.40;;;17.20;78.80;;;;;;5048551;28;20530;-68
2023/10/29 01:17:23;;;;;;;3.37;1.50;;;17.30;78.90;;;;;;5057156;28;20484;-69
2023/10/29 01:19:50;;;;;;;3.00;1.47;;;17.20;79.00;;;;;;5057637;28;20480;-68
2023/10/29 01:22:18;;;;;;;1.40;1.10;;;17.30;78.90;;;;;;5057269;28;20488;-69
2023/10/29 01:24:45;;;;;;;2.27;1.37;;;17.30;78.80;;;;;;5057774;28;20454;-67
2023/10/29 01:27:12;;;;;;;1.53;1.43;;;17.30;78.50;;;;;;5054008;28;20494;-69
2023/10/29 01:29:39;;;;;;;2.33;1.80;;;17.20;78.90;;;;;;5037124;28;20441;-68
2023/10/29 01:32:06;;;;;;;1.80;1.30;;;17.30;78.70;;;;;;5037115;28;20479;-68
2023/10/29 01:34:33;;;;;;;1.50;1.33;;;17.30;78.20;;;;;;5040642;28;20539;-68
2023/10/29 01:37:01;;;;;;;2.93;1.47;;;17.20;77.60;;;;;;5036338;28;20448;-67
2023/10/29 01:39:29;;;;;;;1.83;1.33;;;17.20;77.50;;;;;;5054133;28;20475;-67
2023/10/29 01:41:57;;;;;;;1.50;1.40;;;17.20;77.90;;;;;;5042056;28;20488;-67
2023/10/29 01:44:24;;;;;;;1.53;1.30;;;17.20;77.80;;;;;;5033767;28;20453;-67
2023/10/29 01:46:51;;;;;;;1.70;1.60;;;17.20;78.00;;;;;;5034271;28;20448;-67
2023/10/29 01:49:18;;;;;;;2.80;1.37;;;17.30;78.00;;;;;;5034121;28;20448;-68
2023/10/29 01:51:45;;;;;;;2.70;1.80;;;17.20;77.60;;;;;;5033989;28;20911;-68
2023/10/29 01:54:12;;;;;;;2.53;1.73;;;17.20;77.60;;;;;;5034123;28;20456;-68
2023/10/29 01:56:41;;;;;;;1.60;1.40;;;17.20;77.40;;;;;;5034232;28;20445;-69
2023/10/29 01:59:08;;;;;;;1.70;1.60;;;17.20;76.70;;;;;;5033736;28;20958;-68
2023/10/29 02:01:35;;;;;;;2.67;1.20;;;17.20;76.90;;;;;;5034211;28;20477;-68
2023/10/29 02:04:02;;;;;;;2.33;1.20;;;17.20;76.70;;;;;;5033345;28;20543;-66
2023/10/29 02:06:29;;;;;;;1.30;1.20;;;17.20;76.60;;;;;;5033915;28;20945;-68
2023/10/29 02:08:56;;;;;;;3.60;1.70;;;17.20;76.60;;;;;;5034157;28;20446;-67
2023/10/29 02:11:23;;;;;;;2.10;1.43;;;17.20;76.00;;;;;;5040083;28;20448;-68
2023/10/29 02:13:51;;;;;;;1.60;1.30;;;17.20;76.20;;;;;;5052181;28;20464;-68
2023/10/29 02:16:18;;;;;;;1.60;1.00;;;17.20;76.20;;;;;;5038486;28;20481;-67
2023/10/29 02:18:45;;;;;;;1.50;1.30;;;17.20;75.70;;;;;;5033369;28;20460;-68
2023/10/29 02:21:11;;;;;;;1.90;1.10;;;17.20;76.00;;;;;;5039092;28;20828;-67
2023/10/29 02:23:40;;;;;;;2.17;1.40;;;17.30;75.80;;;;;;5053118;28;20490;-68
2023/10/29 02:26:06;;;;;;;1.17;1.03;;;17.30;75.50;;;;;;5053172;28;20443;-68
2023/10/29 02:28:33;;;;;;;1.60;1.30;;;17.30;75.90;;;;;;5052730;28;20475;-68
2023/10/29 02:31:00;;;;;;;1.00;1.00;;;17.40;76.00;;;;;;5053453;28;20444;-68
2023/10/29 02:33:27;;;;;;;2.50;1.10;;;17.40;75.10;;;;;;5052992;28;20550;-67
2023/10/29 02:35:54;;;;;;;1.23;0.90;;;17.40;74.50;;;;;;5053139;28;20472;-67
2023/10/29 02:38:20;;;;;;;2.67;1.23;;;17.40;74.20;;;;;;5051324;28;20539;-69
2023/10/29 02:40:49;;;;;;;1.80;1.00;;;17.40;74.40;;;;;;5040071;28;20567;-67
2023/10/29 02:43:16;;;;;;;1.40;1.13;;;17.40;74.10;;;;;;5040902;28;20500;-68
2023/10/29 02:45:44;;;;;;;1.60;1.40;;;17.40;73.80;;;;;;5051237;28;20453;-68
2023/10/29 02:48:11;;;;;;;1.47;1.33;;;17.40;74.20;;;;;;5052842;28;20909;-68
2023/10/29 02:50:38;;;;;;;1.57;1.00;;;17.40;73.50;;;;;;5053164;28;20863;-69
2023/10/29 02:53:05;;;;;;;1.33;1.03;;;17.40;73.50;;;;;;5052624;28;20444;-69
2023/10/29 02:55:32;;;;;;;1.10;0.97;;;17.40;73.50;;;;;;5052330;28;20567;-68
2023/10/29 02:58:01;;;;;;;3.40;1.17;;;17.40;73.60;;;;;;5039815;28;20444;-68
2023/10/29 03:00:28;;;;;;;1.20;1.10;;;17.40;73.30;;;;;;5052716;28;20484;-68
2023/10/29 03:02:54;;;;;;;1.67;1.23;;;17.40;73.30;;;;;;5052262;28;20970;-69
2023/10/29 03:05:22;;;;;;;1.50;1.00;;;17.30;72.60;;;;;;5052536;28;20450;-68
2023/10/29 03:07:49;;;;;;;1.30;1.20;;;17.30;73.20;;;;;;5048626;28;20501;-68
2023/10/29 03:10:15;;;;;;;0.90;0.87;;;17.30;72.90;;;;;;5032502;28;20957;-68
2023/10/29 03:12:42;;;;;;;1.70;1.20;;;17.40;73.00;;;;;;5032284;28;20443;-69
2023/10/29 03:15:11;;;;;;;1.77;1.30;;;17.40;72.90;;;;;;5032544;28;20535;-68
2023/10/29 03:17:38;;;;;;;2.40;1.13;;;17.40;73.30;;;;;;5037701;28;20448;-68
2023/10/29 03:20:06;;;;;;;1.50;1.20;;;17.50;72.50;;;;;;5052209;28;20474;-67
2023/10/29 03:22:33;;;;;;;1.83;1.23;;;17.50;72.60;;;;;;5052050;28;20486;-68
2023/10/29 03:25:00;;;;;;;1.77;0.80;;;17.50;72.30;;;;;;5052183;28;20498;-67
2023/10/29 03:27:27;;;;;;;1.23;1.10;;;17.60;72.30;;;;;;5034872;28;20459;-68
2023/10/29 03:29:54;;;;;;;1.60;0.80;;;17.60;72.20;;;;;;5032145;28;20456;-68
2023/10/29 03:32:22;;;;;;;1.20;1.10;;;17.60;72.00;;;;;;5032264;28;20507;-68
2023/10/29 03:34:49;;;;;;;0.73;0.73;;;17.70;71.80;;;;;;5031990;28;20444;-68
2023/10/29 03:37:16;;;;;;;1.20;1.10;;;17.70;71.60;;;;;;5031921;28;20441;-69
2023/10/29 03:39:43;;;;;;;1.10;1.00;;;17.70;71.50;;;;;;5014573;28;20526;-68
2023/10/29 03:42:10;;;;;;;0.80;0.80;;;17.80;71.40;;;;;;5031443;28;20492;-69
2023/10/29 03:44:37;;;;;;;1.07;0.80;;;17.80;71.50;;;;;;5031786;28;20455;-68
2023/10/29 03:47:04;;;;;;;1.53;1.43;;;17.80;71.50;;;;;;5031811;28;20441;-67
2023/10/29 03:49:32;;;;;;;2.17;1.37;;;17.80;71.60;;;;;;5031902;28;20459;-69
2023/10/29 03:51:59;;;;;;;1.60;1.10;;;17.80;71.60;;;;;;5031587;28;20536;-68
2023/10/29 03:54:26;;;;;;;2.00;1.20;;;17.80;72.10;;;;;;5047217;28;20555;-68
2023/10/29 03:56:53;;;;;;;1.53;1.00;;;17.80;72.60;;;;;;5039379;28;20889;-69
2023/10/29 03:59:19;;;;;;;1.03;0.93;;;17.70;72.80;;;;;;5031796;28;20468;-68
2023/10/29 04:01:46;;;;;;;2.20;1.10;;;17.70;73.20;;;;;;5031894;28;20480;-67
2023/10/29 04:04:13;;;;;;;0.70;0.70;;;17.60;73.60;;;;;;5031515;28;20565;-68
2023/10/29 04:06:43;;;;;;;1.50;1.10;;;17.60;74.40;;;;;;5031661;28;20453;-69
2023/10/29 04:09:10;;;;;;;2.20;1.40;;;17.60;74.80;;;;;;5031760;28;20476;-69
2023/10/29 04:11:37;;;;;;;2.33;1.53;;;17.50;74.80;;;;;;5031994;28;20929;-68
2023/10/29 04:14:04;;;;;;;3.13;1.30;;;17.40;75.10;;;;;;5032951;28;20456;-68
2023/10/29 04:16:31;;;;;;;2.10;1.50;;;17.40;76.00;;;;;;5032862;28;20477;-68
2023/10/29 04:18:59;;;;;;;1.00;1.00;;;17.40;76.30;;;;;;5031644;28;20497;-68
2023/10/29 04:21:25;;;;;;;0.93;0.93;;;17.30;76.70;;;;;;5038939;28;20496;-68
2023/10/29 04:23:54;;;;;;;1.77;1.23;;;17.30;77.20;;;;;;5051491;28;20440;-68
2023/10/29 04:26:20;;;;;;;3.80;1.10;;;17.20;77.40;;;;;;5045309;28;20457;-68
2023/10/29 04:28:47;;;;;;;1.77;1.17;;;17.20;78.00;;;;;;5031637;28;20471;-68
2023/10/29 04:31:14;;;;;;;4.00;1.53;;;17.20;79.10;;;;;;4996436;28;20442;-68
2023/10/29 04:33:45;;;;;;;1.50;1.40;;;17.20;78.60;;;;;;5031672;28;20977;-67
2023/10/29 04:36:19;;;;;;;1.97;1.30;;;17.10;78.80;;;;;;5032075;28;20465;-68
2023/10/29 04:38:46;;;;;;;2.03;1.30;;;17.10;79.10;;;;;;5030969;28;20531;-68
2023/10/29 04:41:14;;;;;;;2.23;1.53;;;17.10;79.50;;;;;;5032316;28;20488;-66
2023/10/29 04:43:41;;;;;;;1.70;1.23;;;17.00;80.00;;;;;;5037860;28;20477;-68
2023/10/29 04:46:08;;;;;;;3.00;2.10;;;17.00;80.00;;;;;;5031104;28;20948;-68
2023/10/29 04:48:35;;;;;;;4.73;2.50;;;17.00;80.50;;;;;;5031473;28;20497;-68
2023/10/29 04:51:02;;;;;;;2.27;1.70;;;17.00;80.80;;;;;;5031341;28;20442;-68
2023/10/29 04:53:29;;;;;;;2.40;1.90;;;16.90;80.00;;;;;;5030991;28;20565;-68
2023/10/29 04:55:56;;;;;;;2.77;1.90;;;16.90;80.50;;;;;;5037670;28;20861;-68
2023/10/29 04:58:24;;;;;;;2.30;2.10;;;16.90;81.00;;;;;;5033295;28;20465;-68
2023/10/29 05:00:51;;;;;;;2.90;2.10;;;16.90;81.20;;;;;;5031053;28;20449;-69
2023/10/29 05:03:17;;;;;;;2.53;2.13;;;16.90;81.60;;;;;;5031383;28;20552;-68
2023/10/29 05:05:44;;;;;;;2.00;1.80;;;16.90;82.00;;;;;;5030764;28;20475;-68
2023/10/29 05:08:11;;;;;;;2.70;2.00;;;16.90;82.30;;;;;;5035289;28;20448;-68
2023/10/29 05:10:38;;;;;;;2.30;1.70;;;16.80;82.30;;;;;;5053307;28;20534;-68
2023/10/29 05:13:05;;;;;;;2.67;2.10;;;16.80;82.90;;;;;;5054647;28;20452;-68
2023/10/29 05:15:33;;;;;;;2.27;1.70;;;16.80;82.50;;;;;;5055400;28;20455;-68
2023/10/29 05:18:00;;;;;;;5.33;1.93;;;16.80;82.90;;;;;;5054630;28;20471;-68
2023/10/29 05:20:27;;;;;;;2.67;1.50;;;16.80;83.10;;;;;;5052762;28;20460;-68
2023/10/29 05:22:54;;;;;;;2.70;1.80;;;16.80;83.20;;;;;;5054366;28;20509;-68
2023/10/29 05:25:21;;;;;;;1.67;1.10;;;16.70;83.40;;;;;;5054748;28;20472;-69
2023/10/29 05:27:51;;;;;;;1.77;1.30;;;16.80;83.50;;;;;;5036746;28;20457;-69
2023/10/29 05:30:18;;;;;;;4.53;1.67;;;16.70;83.60;;;;;;5034653;28;20473;-68
2023/10/29 05:32:46;;;;;;;2.10;1.40;;;16.70;83.50;;;;;;5034972;28;20983;-68
2023/10/29 05:35:13;;;;;;;2.67;1.20;;;16.70;83.80;;;;;;5034305;28;20773;-68
2023/10/29 05:37:40;;;;;;;3.57;1.20;;;16.70;83.80;;;;;;5034307;28;20478;-68
2023/10/29 05:40:09;;;;;;;1.87;1.50;;;16.70;83.80;;;;;;5034076;28;20476;-67
2023/10/29 05:42:36;;;;;;;1.93;1.30;;;16.70;84.00;;;;;;5016346;28;20539;-69
2023/10/29 05:45:06;;;;;;;3.17;1.50;;;16.60;83.80;;;;;;5034026;28;20473;-68
2023/10/29 05:47:33;;;;;;;4.30;1.57;;;16.70;84.10;;;;;;5034415;28;20457;-67
2023/10/29 05:50:03;;;;;;;2.23;1.20;;;16.60;84.80;;;;;;5033833;28;20471;-68
2023/10/29 05:52:31;;;;;;;6.03;1.57;;;16.60;84.20;;;;;;5033796;28;20528;-67
2023/10/29 05:54:58;;;;;;;4.50;1.47;;;16.70;84.20;;;;;;5033943;28;20449;-68
2023/10/29 05:57:24;;;;;;;3.53;1.73;;;16.60;84.10;;;;;;5048388;28;20455;-68
2023/10/29 05:59:51;;;;;;;3.13;1.47;;;16.60;84.40;;;;;;5001917;28;20809;-68
2023/10/29 06:02:18;;;;;;;1.40;1.30;;;16.60;84.60;;;;;;5053517;28;20492;-68
2023/10/29 06:04:46;;;;;;;2.00;1.63;;;16.60;84.60;;;;;;5053323;28;20455;-67
2023/10/29 06:07:14;;;;;;;1.97;1.50;;;16.50;84.80;;;;;;5046556;28;20469;-68
2023/10/29 06:09:41;;;;;;;1.83;1.37;;;16.50;85.00;;;;;;5033670;28;20495;-68
2023/10/29 06:12:09;;;;;;;3.07;1.53;;;16.60;85.10;;;;;;5034166;28;20812;-68
2023/10/29 06:14:36;;;;;;;2.23;1.23;;;16.60;85.10;;;;;;5033855;28;21022;-68
2023/10/29 06:17:03;;;;;;;5.63;1.80;;;16.60;85.40;;;;;;5033641;28;20967;-69
2023/10/29 06:19:30;;;;;;;2.63;1.50;;;16.60;85.30;;;;;;5033448;28;20457;-68
2023/10/29 06:21:57;;;;;;;2.97;1.50;;;16.60;85.10;;;;;;5044040;28;20484;-69
2023/10/29 06:24:25;;;;;;;2.63;1.70;;;16.60;85.50;;;;;;5053597;28;20454;-68
2023/10/29 06:26:53;;;;;;;3.90;1.60;;;16.60;85.80;;;;;;5044281;28;20484;-68
2023/10/29 06:29:20;;;;;;;1.80;1.70;;;16.50;85.70;;;;;;5033790;28;20449;-68
2023/10/29 06:31:46;;;;;;;2.20;1.50;;;16.50;85.70;;;;;;5015611;28;20438;-69
2023/10/29 06:34:13;;;;;;;2.00;1.70;;;16.40;86.00;;;;;;5052441;28;20456;-68
2023/10/29 06:36:40;;;;;;;5.10;2.23;;;16.40;86.10;;;;;;5053054;28;20452;-68
2023/10/29 06:39:08;;;;;;;4.53;2.20;;;16.40;86.50;;;;;;5035103;28;20472;-69
2023/10/29 06:41:36;;;;;;;2.40;1.90;;;16.30;86.80;;;;;;5052352;28;20623;-68
2023/10/29 06:44:03;;;;;;;2.57;1.70;;;16.40;86.90;;;;;;5053342;28;20492;-67
2023/10/29 06:46:32;;;;;;;3.00;1.70;;;16.40;87.00;;;;;;5053051;28;20478;-68
2023/10/29 06:48:59;;;;;;;3.00;1.83;;;16.40;87.00;;;;;;5051926;28;20498;-67
2023/10/29 06:51:26;;;;;;;2.07;1.80;;;16.40;86.90;;;;;;5052533;28;20447;-69
2023/10/29 06:53:53;;;;;;;3.70;2.47;;;16.50;87.30;;;;;;5052852;28;20454;-68
2023/10/29 06:56:20;;;;;;;5.80;2.60;;;16.50;87.10;;;;;;5048288;28;20901;-68
2023/10/29 06:58:48;;;;;;;4.00;2.07;;;16.50;87.40;;;;;;5032971;28;20464;-68
2023/10/29 07:01:16;;;;;;;3.50;2.60;;;16.50;87.80;;;;;;5039461;28;20463;-68
2023/10/29 07:03:43;;;;;;;3.77;2.40;;;16.50;87.70;;;;;;5043386;28;20468;-68
2023/10/29 07:06:13;;;;;;;1.87;1.77;;;16.50;87.80;;;;;;5049059;28;20459;-67
2023/10/29 07:08:40;;;;;;;2.10;1.60;;;16.50;87.70;;;;;;5041228;28;20892;-67
2023/10/29 07:11:07;;;;;;;3.33;1.60;;;16.50;87.90;;;;;;5046780;28;20484;-68
2023/10/29 07:13:34;;;;;;;1.63;1.23;;;16.40;87.30;;;;;;5054114;28;20463;-67
2023/10/29 07:16:04;;;;;;;3.00;1.70;;;16.40;87.60;;;;;;5058638;28;20540;-68
2023/10/29 07:18:31;;;;;;;2.90;1.40;;;16.40;88.00;;;;;;5072341;28;20526;-68
2023/10/29 07:20:58;;;;;;;3.73;1.50;;;16.40;87.90;;;;;;5068622;28;20508;-68
2023/10/29 07:23:26;;;;;;;3.00;1.77;;;16.30;88.10;;;;;;5052386;28;20491;-68
2023/10/29 07:25:52;;;;;;;2.70;1.60;;;16.30;88.30;;;;;;5051589;28;20429;-68
2023/10/29 07:28:20;;;;;;;3.20;1.33;;;16.40;88.00;;;;;;5032154;28;20824;-68
2023/10/29 07:30:48;;;;;;;1.40;1.30;;;16.30;88.20;;;;;;5038933;28;20499;-68
2023/10/29 07:33:16;;;;;;;4.10;1.40;;;16.40;88.50;;;;;;5050938;28;20474;-68
2023/10/29 07:35:43;;;;;;;2.40;1.47;;;16.40;88.70;;;;;;5051966;28;20440;-68
2023/10/29 07:38:10;;;;;;;3.03;1.80;;;16.40;88.70;;;;;;5052423;28;20452;-68
2023/10/29 07:40:37;;;;;;;2.67;1.77;;;16.40;88.50;;;;;;5051116;28;20449;-68
2023/10/29 07:43:04;;;;;;;2.33;1.37;;;16.40;88.50;;;;;;5039576;28;20488;-68
2023/10/29 07:45:31;;;;;;;3.10;1.83;;;16.40;88.70;;;;;;5032887;28;20444;-68
2023/10/29 07:47:58;;;;;;;5.43;2.00;;;16.40;88.70;;;;;;5056442;28;20535;-68
2023/10/29 07:50:26;;;;;;;2.67;1.70;;;16.40;88.80;;;;;;5055808;28;20837;-67
2023/10/29 07:52:53;;;;;;;4.47;1.83;;;16.40;89.10;;;;;;5055264;28;20799;-68
2023/10/29 07:55:20;;;;;;;3.60;1.93;;;16.30;90.00;;;;;;5052798;28;21062;-68
2023/10/29 07:57:47;;;;;;;3.77;1.83;;;16.30;89.10;;;;;;5036947;28;20496;-67
2023/10/29 08:00:15;;;;;;;2.30;1.83;;;16.20;89.10;;;;;;5056439;28;20491;-67
2023/10/29 08:02:42;;;;;;;2.63;1.80;;;16.10;89.30;;;;;;5051498;28;20494;-67
2023/10/29 08:05:10;;;;;;;3.20;2.40;;;16.10;89.30;;;;;;5051908;28;20527;-68
2023/10/29 08:07:39;;;;;;;3.23;2.03;;;16.00;89.50;;;;;;5034087;28;20547;-69
2023/10/29 08:10:06;;;;;;;2.50;1.93;;;16.00;90.00;;;;;;5051590;28;20531;-68
2023/10/29 08:12:34;;;;;;;2.27;1.97;;;16.00;90.00;;;;;;5033982;28;20472;-68
2023/10/29 08:15:02;;;;;;;2.93;1.83;;;16.10;90.10;;;;;;5033143;28;20479;-68
2023/10/29 08:17:29;;;;;;;3.07;2.20;;;16.10;90.00;;;;;;5051412;28;20452;-67
2023/10/29 08:19:58;;;;;;;2.57;1.80;;;16.10;90.00;;;;;;5051476;28;20444;-67
2023/10/29 08:22:25;;;;;;;2.73;1.80;;;16.20;90.00;;;;;;5051286;28;20529;-67
2023/10/29 08:24:54;;;;;;;2.00;1.80;;;16.20;90.00;;;;;;5040518;28;20448;-67
2023/10/29 08:27:21;;;;;;;2.00;1.67;;;16.20;90.00;;;;;;5044925;28;20472;-68
2023/10/29 08:29:49;;;;;;;3.07;2.00;;;16.30;90.00;;;;;;5051640;28;20454;-68
2023/10/29 08:32:16;;;;;;;3.50;2.10;;;16.30;90.10;;;;;;5052555;28;20460;-67
2023/10/29 08:34:43;;;;;;;2.40;1.80;;;16.40;90.10;;;;;;5051553;28;20575;-67
2023/10/29 08:37:11;;;;;;;4.57;2.03;;;16.40;90.10;;;;;;5044464;28;20544;-68
2023/10/29 08:39:38;;;;;;;2.00;1.80;;;16.50;90.40;;;;;;5052440;28;20487;-67
2023/10/29 08:42:06;;;;;;;2.40;1.70;;;16.50;90.10;;;;;;5052538;28;20471;-67
2023/10/29 08:44:34;;;;;;;2.73;1.60;;;16.50;90.10;;;;;;5053475;28;21087;-68
2023/10/29 08:47:01;;;;;;;1.60;1.50;;;16.60;90.00;;;;;;5004380;28;20479;-68
2023/10/29 08:49:28;;;;;;;1.70;1.60;;;16.70;89.90;;;;;;5054856;28;20462;-67
2023/10/29 08:51:55;;;;;;;2.90;2.00;;;16.70;89.80;;;;;;5037618;28;20507;-68
2023/10/29 08:54:23;;;;;;;1.93;1.70;;;16.80;90.20;;;;;;5054768;28;20828;-68
2023/10/29 08:56:50;;;;;;;1.87;1.60;;;16.90;89.90;;;;;;5057105;28;20819;-68
2023/10/29 08:59:19;;;;;;;2.20;1.70;;;16.90;89.90;;;;;;5054150;28;20479;-68
2023/10/29 09:01:45;;;;;;;2.87;1.80;;;16.90;88.90;;;;;;5055128;28;20458;-68
2023/10/29 09:04:12;;;;;;;2.50;1.57;;;16.90;89.20;;;;;;5055081;28;20518;-68
2023/10/29 09:06:39;;;;;;;4.07;1.73;;;16.90;89.00;;;;;;5055130;28;20528;-68
2023/10/29 09:09:06;;;;;;;1.77;1.63;;;17.00;89.30;;;;;;5055287;28;20538;-68
2023/10/29 09:11:33;;;;;;;2.00;1.77;;;17.00;89.60;;;;;;5055067;28;20472;-69
2023/10/29 09:14:01;;;;;;;3.17;1.70;;;17.10;89.70;;;;;;5054448;28;20440;-68
2023/10/29 09:16:29;;;;;;;2.13;1.70;;;17.20;89.50;;;;;;5052129;28;20944;-68
2023/10/29 09:18:57;;;;;;;2.30;1.50;;;17.20;89.50;;;;;;5061024;28;20444;-70
2023/10/29 09:21:24;;;;;;;2.73;1.47;;;17.30;89.70;;;;;;5068149;28;20436;-67
2023/10/29 09:23:52;;;;;;;2.40;1.57;;;17.40;90.00;;;;;;5065210;28;20584;-68
2023/10/29 09:26:19;;;;;;;2.00;1.60;;;17.40;89.50;;;;;;5053727;28;20487;-68
2023/10/29 09:28:46;;;;;;;2.67;1.80;;;17.40;90.00;;;;;;4998211;28;20460;-68
2023/10/29 09:31:17;;;;;;;2.10;1.60;;;17.50;89.50;;;;;;5034929;28;20471;-68
2023/10/29 09:33:46;;;;;;;2.73;1.80;;;17.50;89.30;;;;;;5016278;28;20449;-68
2023/10/29 09:36:13;;;;;;;1.60;1.40;;;17.50;88.90;;;;;;5036711;28;20926;-68
2023/10/29 09:38:42;;;;;;;1.77;1.67;;;17.50;89.40;;;;;;5035231;28;20449;-68
2023/10/29 09:41:09;;;;;;;2.40;1.60;;;17.50;89.20;;;;;;5040219;28;20640;-67
2023/10/29 09:43:40;;;;;;;3.47;1.70;;;17.50;89.60;;;;;;5034209;28;20560;-69
2023/10/29 09:46:08;;;;;;;4.83;1.83;;;17.60;90.10;;;;;;5034103;28;20553;-68
2023/10/29 09:48:36;;;;;;;2.27;1.63;;;17.60;90.10;;;;;;5034047;28;20477;-68
2023/10/29 09:51:06;;;;;;;2.00;1.57;;;17.60;90.10;;;;;;5035865;28;20456;-68
2023/10/29 09:53:35;;;;;;;2.83;1.70;;;17.70;90.30;;;;;;5052240;28;20480;-68
2023/10/29 09:56:02;;;;;;;1.67;1.50;;;17.70;90.40;;;;;;5039250;22;20595;-68
2023/10/29 09:58:29;;;;;;;4.07;1.80;;;17.80;90.60;;;;;;5033997;28;20468;-67
2023/10/29 10:00:58;;;;;;;2.30;1.97;;;17.80;90.60;;;;;;5041232;28;20505;-66
2023/10/29 10:03:26;;;;;;;2.63;2.00;;;17.80;90.60;;;;;;4986623;28;20567;-68
2023/10/29 10:05:55;;;;;;;2.07;1.90;;;17.90;90.70;;;;;;5043164;28;20453;-66
2023/10/29 10:08:26;;;;;;;2.53;1.93;;;17.90;90.80;;;;;;5035375;28;20507;-68
2023/10/29 10:10:54;;;;;;;2.30;1.80;;;17.90;90.80;;;;;;5034697;28;20460;-68
2023/10/29 10:13:37;;;;;;;2.37;1.70;;;17.90;90.70;;;;;;5041767;28;20441;-66
2023/10/29 10:16:10;;;;;;;1.87;1.50;;;17.90;90.80;;;;;;5036603;28;20456;-67
2023/10/29 10:18:57;;;;;;;3.13;1.70;;;18.00;90.70;;;;;;5034626;28;20806;-68
2023/10/29 10:21:25;;;;;;;6.27;1.83;;;18.00;90.80;;;;;;5014701;28;20450;-68
2023/10/29 10:23:55;;;;;;;1.67;1.57;;;18.00;90.60;;;;;;5014954;28;20485;-69
2023/10/29 10:26:30;;;;;;;2.50;1.70;;;18.00;90.60;;;;;;4992165;28;20454;-68
2023/10/29 10:28:59;;;;;;;3.87;2.10;;;18.10;90.60;;;;;;5013424;28;20445;-69
2023/10/29 10:31:27;;;;;;;2.40;2.10;;;18.20;90.70;;;;;;5014031;28;20473;-68
2023/10/29 10:34:09;;;;;;;3.70;2.40;;;18.20;90.90;;;;;;5034457;22;20933;-68
2023/10/29 10:36:36;;;;;;;2.93;2.30;;;18.30;90.90;;;;;;5042038;28;20455;-68
2023/10/29 10:39:05;;;;;;;3.17;2.00;;;18.30;90.80;;;;;;5053278;28;20539;-68
2023/10/29 10:41:41;;;;;;;2.30;1.93;;;18.40;90.90;;;;;;5035029;28;20462;-68
2023/10/29 10:44:11;;;;;;;3.43;2.03;;;18.50;90.80;;;;;;5032535;28;20496;-68
2023/10/29 10:46:41;;;;;;;2.53;1.80;;;18.50;90.60;;;;;;5033064;28;20929;-68
2023/10/29 10:49:08;;;;;;;2.00;1.80;;;18.60;90.70;;;;;;5032478;28;20452;-68
2023/10/29 10:51:36;;;;;;;2.03;1.80;;;18.70;90.80;;;;;;5032705;28;20564;-68
2023/10/29 10:54:06;;;;;;;2.43;2.10;;;18.80;90.70;;;;;;5035297;28;20198;-67
2023/10/29 10:56:36;;;;;;;2.70;2.00;;;18.90;90.60;;;;;;5051963;28;20236;-67
2023/10/29 10:59:05;;;;;;;2.27;2.00;;;19.00;90.90;;;;;;5054813;28;20260;-68
2023/10/29 11:01:33;;;;;;;2.23;1.90;;;19.10;90.70;;;;;;5052927;28;20205;-68
2023/10/29 11:04:03;;;;;;;2.10;1.90;;;19.30;90.70;;;;;;5052827;28;20733;-67
2023/10/29 11:06:30;;;;;;;2.40;1.77;;;19.40;90.70;;;;;;5041976;28;20457;-68
2023/10/29 11:08:57;;;;;;;2.20;1.83;;;19.50;90.40;;;;;;5014493;28;20206;-68
2023/10/29 11:11:30;;;;;;;3.97;2.00;;;19.50;90.40;;;;;;5034051;28;20330;-67
2023/10/29 11:14:12;;;;;;;3.53;1.90;;;19.60;90.00;;;;;;5033259;28;20524;-67
2023/10/29 11:16:50;;;;;;;2.07;1.87;;;19.60;89.80;;;;;;5036329;28;20708;-68
2023/10/29 11:19:37;;;;;;;2.20;1.90;;;19.70;89.40;;;;;;4997421;28;20671;-68
2023/10/29 11:22:22;;;;;;;1.80;1.70;;;19.60;88.50;;;;;;5033376;28;20206;-68
2023/10/29 11:25:37;;;;;;;3.00;2.00;;;19.60;88.40;;;;;;4998997;28;20568;-68
2023/10/29 11:28:06;;;;;;;4.20;2.40;;;19.70;88.80;;;;;;5034630;28;20240;-67
2023/10/29 11:30:33;;;;;;;2.87;2.30;;;19.70;89.20;;;;;;5033137;28;20293;-68
2023/10/29 11:33:22;;;;;;;2.30;2.07;;;19.80;89.10;;;;;;5032670;28;20611;-68
2023/10/29 11:35:49;;;;;;;2.57;1.93;;;19.80;89.70;;;;;;5053670;22;20221;-67
2023/10/29 11:38:31;;;;;;;2.40;1.90;;;19.80;89.70;;;;;;5052562;28;20209;-68
2023/10/29 11:40:58;;;;;;;5.07;2.80;;;19.90;89.80;;;;;;5052416;28;20230;-69
2023/10/29 11:43:27;;;;;;;4.57;3.30;;;19.90;89.50;;;;;;5053833;28;20210;-68
2023/10/29 11:45:58;;;;;;;4.30;3.00;;;20.00;89.40;;;;;;5048921;28;20284;-67
2023/10/29 11:48:28;;;;;;;4.23;3.07;;;20.10;90.00;;;;;;5039210;28;20285;-68
2023/10/29 11:51:21;;;;;;;3.30;2.50;;;20.10;88.80;;;;;;5033745;28;20619;-68
2023/10/29 11:53:50;;;;;;;3.03;2.10;;;20.20;88.80;;;;;;5052232;28;20198;-68
2023/10/29 11:56:25;;;;;;;2.10;1.77;;;20.30;88.50;;;;;;5052280;28;20282;-68
2023/10/29 11:59:07;;;;;;;2.03;1.73;;;20.20;88.50;;;;;;5052329;28;20601;-67
2023/10/29 12:01:35;;;;;;;1.97;1.70;;;20.20;88.80;;;;;;5052070;28;20674;-68
2023/10/29 12:04:02;;;;;;;3.30;1.83;;;20.20;88.40;;;;;;5051598;28;20757;-67
2023/10/29 12:06:43;;;;;;;3.33;2.13;;;20.10;88.40;;;;;;5049381;28;20722;-68
2023/10/29 12:09:21;;;;;;;3.73;2.57;;;20.00;88.30;;;;;;5071710;28;20232;-68
2023/10/29 12:11:49;;;;;;;3.90;2.50;;;19.90;88.40;;;;;;5071506;28;20304;-68
2023/10/29 12:14:38;;;;;;;4.77;2.70;;;19.90;88.90;;;;;;5036333;28;20291;-67
2023/10/29 12:17:06;;;;;;;4.33;3.20;;;19.90;89.10;;;;;;5071812;28;20205;-68
2023/10/29 12:19:36;;;;;;;2.83;2.23;;;19.80;89.00;;;;;;5071194;28;20289;-68
2023/10/29 12:22:03;;;;;;;2.43;2.10;;;19.80;89.60;;;;;;5059167;28;20209;-68
2023/10/29 12:24:32;;;;;;;1.83;1.47;;;19.70;90.10;;;;;;5051257;28;20217;-68
2023/10/29 12:27:00;;;;;;;2.53;1.80;;;19.70;90.00;;;;;;5051616;28;20234;-68
2023/10/29 12:29:29;;;;;;;2.50;2.00;;;19.80;89.40;;;;;;5051801;28;20297;-68
2023/10/29 12:31:55;;;;;;;3.17;1.87;;;20.00;89.60;;;;;;5051419;28;20483;-69
2023/10/29 12:34:23;;;;;;;3.53;1.60;;;20.20;89.40;;;;;;5051621;28;20284;-68
2023/10/29 12:36:50;;;;;;;2.10;1.47;;;20.30;90.00;;;;;;5050555;28;20226;-68
2023/10/29 12:39:16;;;;;;;2.53;1.93;;;20.40;89.80;;;;;;5033659;28;20234;-68
2023/10/29 12:41:51;;;;;;;1.80;1.50;;;20.40;90.10;;;;;;5051438;28;20278;-68
2023/10/29 12:44:18;;;;;;;2.97;1.40;;;20.40;89.40;;;;;;5051180;28;20601;-68
2023/10/29 12:46:50;;;;;;;2.17;1.90;;;20.40;90.30;;;;;;5051997;28;20601;-68
2023/10/29 12:49:25;;;;;;;2.93;1.80;;;20.30;87.90;;;;;;5052152;28;20212;-68
2023/10/29 12:51:54;;;;;;;3.63;2.47;;;20.30;88.00;;;;;;5052681;28;20241;-68
2023/10/29 12:54:25;;;;;;;2.17;1.97;;;20.30;88.20;;;;;;5051636;28;20190;-69